N42J KRIC-KORF
Flight info
| Callsign | N42J |
|---|---|
| Flight time | N/A |
| Altitude | 8000 |
| Route | KRIC/02 N0280F150 DCT WAIKS DCT CALEY DCT PEAAY DCT ACUNO DCT KORF/05 |
| Aircraft | PC12/L-V/N |
Departure
| Time | 2026-04-26 22:21 |
|---|---|
| Airport | Richmond International Airport (KRIC) |
Arrival
| Time | N/A |
|---|---|
| Airport | Norfolk International Airport (KORF) |
| Time | Latitude | Longitude | Altitude | Speed | Heading |
|---|---|---|---|---|---|
| 2026-04-26 22:21 | 37.27387 | -77.19441 | 8144 ft | 255 kts | 155° |
| 2026-04-26 22:21 | 37.25760 | -77.18574 | 8150 ft | 265 kts | 156° |
| 2026-04-26 22:21 | 37.24036 | -77.17677 | 8143 ft | 273 kts | 156° |
| 2026-04-26 22:22 | 37.22261 | -77.16754 | 8140 ft | 279 kts | 156° |
| 2026-04-26 22:22 | 37.20458 | -77.15811 | 8116 ft | 283 kts | 157° |
| 2026-04-26 22:22 | 37.18633 | -77.14857 | 8064 ft | 285 kts | 159° |
| 2026-04-26 22:22 | 37.16819 | -77.13916 | 8006 ft | 285 kts | 161° |
| 2026-04-26 22:23 | 37.14975 | -77.12967 | 7943 ft | 283 kts | 162° |
| 2026-04-26 22:23 | 37.13189 | -77.12043 | 7900 ft | 279 kts | 162° |
| 2026-04-26 22:23 | 37.11395 | -77.11087 | 7893 ft | 276 kts | 162° |
| 2026-04-26 22:23 | 37.09645 | -77.10113 | 7909 ft | 274 kts | 162° |
| 2026-04-26 22:24 | 37.07923 | -77.09160 | 7879 ft | 272 kts | 161° |
| 2026-04-26 22:24 | 37.06212 | -77.08221 | 7893 ft | 259 kts | 163° |
| 2026-04-26 22:24 | 37.04619 | -77.07274 | 7702 ft | 249 kts | 155° |
| 2026-04-26 22:24 | 37.03276 | -77.05936 | 7424 ft | 247 kts | 140° |
| 2026-04-26 22:25 | 37.02296 | -77.04192 | 7188 ft | 245 kts | 122° |
| 2026-04-26 22:25 | 37.01729 | -77.02219 | 6991 ft | 241 kts | 112° |
| 2026-04-26 22:25 | 37.01211 | -77.00275 | 6834 ft | 232 kts | 116° |
| 2026-04-26 22:25 | 37.00623 | -76.98412 | 6674 ft | 226 kts | 119° |
| 2026-04-26 22:26 | 37.00003 | -76.96628 | 6510 ft | 221 kts | 120° |
| 2026-04-26 22:26 | 36.99382 | -76.94924 | 6352 ft | 216 kts | 121° |
| 2026-04-26 22:26 | 36.98725 | -76.93224 | 6189 ft | 213 kts | 122° |
| 2026-04-26 22:26 | 36.98076 | -76.91588 | 6032 ft | 211 kts | 122° |
| 2026-04-26 22:27 | 36.97414 | -76.89946 | 5866 ft | 210 kts | 122° |
| 2026-04-26 22:27 | 36.96757 | -76.88333 | 5706 ft | 208 kts | 122° |
| 2026-04-26 22:27 | 36.95961 | -76.86824 | 5571 ft | 203 kts | 133° |
| 2026-04-26 22:27 | 36.95115 | -76.85425 | 5399 ft | 205 kts | 129° |
| 2026-04-26 22:28 | 36.94328 | -76.83924 | 5232 ft | 205 kts | 126° |
| 2026-04-26 22:28 | 36.93590 | -76.82418 | 5057 ft | 206 kts | 124° |
| 2026-04-26 22:28 | 36.92866 | -76.80841 | 4846 ft | 208 kts | 123° |
| 2026-04-26 22:28 | 36.92175 | -76.79249 | 4633 ft | 209 kts | 120° |
| 2026-04-26 22:29 | 36.91498 | -76.77626 | 4415 ft | 211 kts | 119° |
| 2026-04-26 22:29 | 36.90836 | -76.76009 | 4211 ft | 211 kts | 118° |
| 2026-04-26 22:29 | 36.90166 | -76.74382 | 4003 ft | 211 kts | 118° |
| 2026-04-26 22:29 | 36.89486 | -76.72752 | 3795 ft | 211 kts | 118° |
| 2026-04-26 22:30 | 36.88782 | -76.71165 | 3592 ft | 209 kts | 126° |
| 2026-04-26 22:30 | 36.87888 | -76.69747 | 3375 ft | 208 kts | 125° |
| 2026-04-26 22:30 | 36.87118 | -76.68201 | 3150 ft | 207 kts | 119° |
| 2026-04-26 22:30 | 36.86443 | -76.66635 | 2933 ft | 206 kts | 116° |
| 2026-04-26 22:31 | 36.85789 | -76.65037 | 2724 ft | 205 kts | 116° |
| 2026-04-26 22:31 | 36.85152 | -76.63471 | 2513 ft | 203 kts | 117° |
| 2026-04-26 22:31 | 36.84524 | -76.61893 | 2292 ft | 202 kts | 116° |
| 2026-04-26 22:31 | 36.83904 | -76.60313 | 2085 ft | 201 kts | 118° |
| 2026-04-26 22:32 | 36.83289 | -76.58755 | 1876 ft | 199 kts | 118° |
| 2026-04-26 22:32 | 36.82681 | -76.57249 | 1799 ft | 191 kts | 118° |
| 2026-04-26 22:32 | 36.82125 | -76.55791 | 1789 ft | 182 kts | 116° |
| 2026-04-26 22:32 | 36.81612 | -76.54390 | 1783 ft | 174 kts | 115° |
| 2026-04-26 22:33 | 36.81119 | -76.53036 | 1789 ft | 167 kts | 116° |
| 2026-04-26 22:33 | 36.80169 | -76.50465 | 1787 ft | 158 kts | 117° |
| 2026-04-26 22:33 | 36.79710 | -76.49244 | 1790 ft | 155 kts | 118° |
| 2026-04-26 22:34 | 36.79253 | -76.48044 | 1788 ft | 152 kts | 119° |
| 2026-04-26 22:34 | 36.78791 | -76.46854 | 1786 ft | 151 kts | 120° |
| 2026-04-26 22:34 | 36.78337 | -76.45695 | 1785 ft | 149 kts | 119° |
| 2026-04-26 22:34 | 36.77890 | -76.44553 | 1782 ft | 147 kts | 120° |
| 2026-04-26 22:35 | 36.77443 | -76.43417 | 1786 ft | 145 kts | 121° |
| 2026-04-26 22:35 | 36.77005 | -76.42294 | 1866 ft | 136 kts | 121° |
| 2026-04-26 22:35 | 36.76607 | -76.41278 | 1868 ft | 136 kts | 121° |
| 2026-04-26 22:35 | 36.76180 | -76.40215 | 1805 ft | 137 kts | 120° |
| 2026-04-26 22:36 | 36.75765 | -76.39168 | 1791 ft | 135 kts | 120° |
| 2026-04-26 22:36 | 36.75353 | -76.38123 | 1789 ft | 133 kts | 120° |
| 2026-04-26 22:36 | 36.74946 | -76.37091 | 1787 ft | 131 kts | 121° |
| 2026-04-26 22:36 | 36.74547 | -76.36074 | 1789 ft | 129 kts | 121° |
| 2026-04-26 22:37 | 36.74437 | -76.34950 | 1766 ft | 138 kts | 84° |
| 2026-04-26 22:37 | 36.74941 | -76.33916 | 1778 ft | 141 kts | 64° |
| 2026-04-26 22:37 | 36.75036 | -76.32814 | 1805 ft | 125 kts | 116° |
| 2026-04-26 22:37 | 36.74486 | -76.32037 | 1808 ft | 119 kts | 149° |
| 2026-04-26 22:38 | 36.73789 | -76.31448 | 1786 ft | 121 kts | 148° |
| 2026-04-26 22:38 | 36.73146 | -76.30746 | 1777 ft | 124 kts | 137° |
| 2026-04-26 22:38 | 36.72881 | -76.29717 | 1771 ft | 133 kts | 94° |
| 2026-04-26 22:38 | 36.73257 | -76.28602 | 1652 ft | 149 kts | 54° |
| 2026-04-26 22:39 | 36.74170 | -76.27963 | 1578 ft | 154 kts | 14° |
| 2026-04-26 22:39 | 36.75185 | -76.28151 | 1566 ft | 147 kts | 333° |
| 2026-04-26 22:39 | 36.76011 | -76.28818 | 1583 ft | 139 kts | 325° |
| 2026-04-26 22:39 | 36.76796 | -76.29494 | 1593 ft | 135 kts | 324° |
| 2026-04-26 22:40 | 36.77595 | -76.30078 | 1588 ft | 133 kts | 348° |
| 2026-04-26 22:40 | 36.78473 | -76.29958 | 1612 ft | 125 kts | 21° |
| 2026-04-26 22:40 | 36.79335 | -76.29775 | 1596 ft | 126 kts | 12° |
| 2026-04-26 22:40 | 36.80122 | -76.29364 | 1609 ft | 121 kts | 34° |
| 2026-04-26 22:41 | 36.80737 | -76.28668 | 1607 ft | 121 kts | 51° |
| 2026-04-26 22:41 | 36.81361 | -76.27903 | 1607 ft | 127 kts | 49° |
| 2026-04-26 22:41 | 36.81999 | -76.27199 | 1592 ft | 118 kts | 46° |
| 2026-04-26 22:41 | 36.82621 | -76.26555 | 1515 ft | 115 kts | 44° |
| 2026-04-26 22:42 | 36.83225 | -76.25948 | 1373 ft | 113 kts | 43° |
| 2026-04-26 22:42 | 36.83782 | -76.25404 | 1243 ft | 111 kts | 42° |
| 2026-04-26 22:43 | 36.84386 | -76.24821 | 1104 ft | 109 kts | 41° |
| 2026-04-26 22:43 | 36.84985 | -76.24246 | 964 ft | 107 kts | 40° |
| 2026-04-26 22:43 | 36.85565 | -76.23693 | 831 ft | 104 kts | 41° |
| 2026-04-26 22:43 | 36.86125 | -76.23145 | 688 ft | 100 kts | 41° |
| 2026-04-26 22:44 | 36.86670 | -76.22620 | 533 ft | 97 kts | 40° |
| 2026-04-26 22:44 | 36.87190 | -76.22115 | 397 ft | 90 kts | 38° |
| 2026-04-26 22:44 | 36.87698 | -76.21667 | 286 ft | 88 kts | 34° |
| 2026-04-26 22:44 | 36.88184 | -76.21204 | 191 ft | 86 kts | 37° |
| 2026-04-26 22:45 | 36.88697 | -76.20723 | 81 ft | 91 kts | 38° |
| 2026-04-26 22:45 | 36.89149 | -76.20290 | 22 ft | 67 kts | 38° |